This is the latest recevied weather packets stored in our database for station/object M0HPP-13. If no packets are shown the sender has not sent any weather packets the latest 10 day(s).
| Time | Temp. | Humidity | Pressure | Rain* | Wind** | Luminosity | Snow |
|---|---|---|---|---|---|---|---|
| 1777606819 | 7.22° C | 78% | 1018.3 hPa | 0 mm | - | 0 W/m² | - |
| 1777606219 | 7.78° C | 76% | 1018.3 hPa | 0 mm | - | 0 W/m² | - |
| 1777605619 | 7.78° C | 74% | 1018.4 hPa | 0 mm | - | 0 W/m² | - |
| 1777605019 | 7.78° C | 75% | 1018.4 hPa | 0 mm | - | 0 W/m² | - |
| 1777604419 | 6.67° C | 81% | 1018.6 hPa | 0 mm | - | 0 W/m² | - |
| 1777603819 | 6.67° C | 81% | 1018.7 hPa | 0 mm | - | 0 W/m² | - |
| 1777603219 | 6.67° C | 78% | 1018.8 hPa | 0 mm | - | 0 W/m² | - |
| 1777602619 | 7.78° C | 75% | 1018.9 hPa | 0 mm | - | 0 W/m² | - |
| 1777602019 | 7.22° C | 77% | 1019 hPa | 0 mm | - | 0 W/m² | - |
| 1777601419 | 7.78° C | 73% | 1019.1 hPa | 0 mm | - | 0 W/m² | - |
| 1777586419 | 7.78° C | 79% | 1020.1 hPa | 0 mm | - | 0 W/m² | - |
| 1777585819 | 8.89° C | 74% | 1020.2 hPa | 0 mm | - | 0 W/m² | - |
| 1777583419 | 8.89° C | 74% | 1020.2 hPa | 0 mm | - | 0 W/m² | - |
| 1777580419 | 11.67° C | 67% | 1020 hPa | 0 mm | - | 2 W/m² | - |
| 1777579819 | 11.67° C | 66% | 1019.9 hPa | 0 mm | - | 4 W/m² | - |
| 1777578619 | 12.78° C | 62% | 1019.8 hPa | 0 mm | - | 9 W/m² | - |
| 1777577419 | 13.89° C | 56% | 1019.7 hPa | 0 mm | - | 16 W/m² | - |
| 1777576819 | 13.89° C | 55% | 1019.7 hPa | 0 mm | - | 20 W/m² | - |
| 1777576219 | 14.44° C | 55% | 1019.7 hPa | 0 mm | - | 29 W/m² | - |
| 1777573819 | 15° C | 54% | 1019.6 hPa | 0 mm | - | 112 W/m² | - |
| 1777573219 | 15.56° C | 50% | 1019.7 hPa | 0 mm | - | 127 W/m² | - |
| 1777571419 | 16.11° C | 50% | 1019.9 hPa | 0 mm | - | 174 W/m² | - |
| 1777570219 | 15.56° C | 54% | 1019.9 hPa | 0 mm | - | 207 W/m² | - |
| 1777569619 | 16.11° C | 55% | 1020 hPa | 0 mm | - | 224 W/m² | - |
| 1777569019 | 16.67° C | 48% | 1020.2 hPa | 0 mm | - | 264 W/m² | - |
* Rain latest hour (hover to see other rain measurements)
** Current wind speed in m/s (hover to see current wind gust speed)